Time;durP1;ratioP1;P1;durP2;ratioP2;P2;SDS_P1;SDS_P2;PMS_P1;PMS_P2;Temp;Humidity;BMP_temperature;BMP_pressure;BME280_temperature;BME280_humidity;BME280_pressure;Samples;Min_cycle;Max_cycle;Signal;HPM_P1;HPM_P2
2021/03/31 00:00:30;;;;;;;38.58;26.48;;;;;;;10.83;85.35;100095.77;1786595;77;21017;-54
2021/03/31 00:02:58;;;;;;;30.32;24.92;;;;;;;10.79;85.75;100091.77;1791188;77;21059;-54
2021/03/31 00:05:27;;;;;;;33.28;24.52;;;;;;;10.76;86.25;100092.56;1782598;77;21471;-54
2021/03/31 00:07:55;;;;;;;30.92;23.12;;;;;;;10.75;86.57;100090.39;1782692;79;21119;-54
2021/03/31 00:10:27;;;;;;;31.17;23.38;;;;;;;10.77;86.86;100089.73;1782919;79;21360;-55
2021/03/31 00:12:55;;;;;;;27.67;22.60;;;;;;;10.76;87.10;100084.59;1784930;79;21110;-55
2021/03/31 00:15:23;;;;;;;31.42;24.07;;;;;;;10.78;87.19;100090.09;1785992;77;21173;-55
2021/03/31 00:17:54;;;;;;;27.98;23.02;;;;;;;10.77;87.42;100077.76;1798724;79;21550;-57
2021/03/31 00:20:22;;;;;;;29.05;23.50;;;;;;;10.79;87.51;100075.80;1782981;79;21104;-55
2021/03/31 00:22:50;;;;;;;30.23;25.10;;;;;;;10.82;87.49;100082.11;1785224;79;21534;-56
2021/03/31 00:25:17;;;;;;;30.00;23.38;;;;;;;10.82;87.58;100081.30;1783599;79;21201;-56
2021/03/31 00:27:45;;;;;;;31.30;24.70;;;;;;;10.78;87.85;100077.27;1814712;79;21131;-56
2021/03/31 00:30:15;;;;;;;31.97;24.57;;;;;;;10.73;88.17;100071.59;1795203;79;21163;-54
2021/03/31 00:32:42;;;;;;;29.85;22.93;;;;;;;10.70;88.60;100066.09;1784005;79;21187;-54
2021/03/31 00:35:11;;;;;;;30.75;24.00;;;;;;;10.65;89.04;100071.05;1784810;79;21521;-55
2021/03/31 00:37:38;;;;;;;35.70;25.50;;;;;;;10.64;89.41;100072.02;1806210;79;21558;-55
2021/03/31 00:40:14;;;;;;;31.45;23.98;;;;;;;10.64;89.79;100068.55;1782957;79;21165;-55
2021/03/31 00:42:42;;;;;;;25.77;22.90;;;;;;;10.59;90.11;100067.66;1785620;79;21124;-55
2021/03/31 00:45:11;;;;;;;28.12;22.55;;;;;;;10.56;90.60;100071.96;1782651;79;21549;-55
2021/03/31 00:47:38;;;;;;;28.38;24.00;;;;;;;10.53;90.99;100062.99;1782540;79;21777;-57
2021/03/31 00:50:12;;;;;;;31.77;25.50;;;;;;;10.53;91.24;100062.47;1784052;79;21029;-54
2021/03/31 00:52:42;;;;;;;27.17;22.00;;;;;;;10.53;91.46;100066.98;1787173;79;21009;-56
2021/03/31 00:55:11;;;;;;;31.42;23.75;;;;;;;10.50;91.70;100066.80;1782546;79;21087;-56
2021/03/31 00:57:40;;;;;;;28.87;22.50;;;;;;;10.48;92.03;100062.10;1782692;79;21581;-56
2021/03/31 01:00:09;;;;;;;29.67;24.12;;;;;;;10.46;92.25;100059.26;1787953;79;21367;-57
2021/03/31 01:02:40;;;;;;;28.02;22.93;;;;;;;10.44;92.50;100063.91;1784126;79;21064;-55
2021/03/31 01:05:11;;;;;;;33.02;24.77;;;;;;;10.43;92.75;100054.25;1782627;79;21151;-56
2021/03/31 01:07:41;;;;;;;34.35;25.68;;;;;;;10.41;93.12;100057.56;1793459;79;21218;-57
2021/03/31 01:10:10;;;;;;;29.50;23.62;;;;;;;10.41;93.43;100050.91;1784069;79;21108;-55
2021/03/31 01:13:11;;;;;;;35.55;25.02;;;;;;;10.42;93.64;100050.78;1799890;79;22178;-56
2021/03/31 01:15:56;;;;;;;31.00;23.02;;;;;;;10.42;93.87;100047.28;1800682;79;21115;-55
2021/03/31 01:18:50;;;;;;;35.25;24.40;;;;;;;10.39;94.28;100046.25;1785519;79;21108;-55
2021/03/31 01:22:11;;;;;;;36.42;22.98;;;;;;;10.36;94.68;100042.56;1782244;77;20981;-54
2021/03/31 01:25:13;;;;;;;28.05;21.82;;;;;;;10.33;95.13;100042.88;1793337;79;21139;-56
2021/03/31 01:28:35;;;;;;;36.25;24.57;;;;;;;10.29;95.37;100044.19;1749186;79;22131;-54
2021/03/31 01:31:21;;;;;;;27.15;21.87;;;;;;;10.23;95.79;100043.47;1794081;79;21151;-53
2021/03/31 01:34:23;;;;;;;35.13;25.50;;;;;;;10.20;96.13;100035.80;1766599;77;21100;-55
2021/03/31 01:36:51;;;;;;;32.70;24.43;;;;;;;10.18;96.56;100039.11;1799844;79;21080;-55
2021/03/31 01:39:21;;;;;;;31.75;25.25;;;;;;;10.14;96.95;100034.58;1798271;79;21123;-56
2021/03/31 01:41:50;;;;;;;32.78;24.20;;;;;;;10.13;97.16;100040.91;1814657;79;21208;-55
2021/03/31 01:44:18;;;;;;;31.35;23.12;;;;;;;10.12;97.35;100033.91;1813822;77;21138;-55
2021/03/31 01:46:53;;;;;;;32.75;25.12;;;;;;;10.13;97.63;100033.42;1783545;79;21151;-55
2021/03/31 01:49:22;;;;;;;30.08;24.75;;;;;;;10.13;97.64;100035.59;1801534;79;20975;-56
2021/03/31 01:51:59;;;;;;;30.72;23.62;;;;;;;10.13;97.77;100032.09;1776312;80;21585;-56
2021/03/31 01:54:28;;;;;;;27.67;22.80;;;;;;;10.13;97.94;100033.42;1779691;79;21344;-55
2021/03/31 01:56:56;;;;;;;33.45;25.10;;;;;;;10.12;98.08;100029.92;1779916;79;20903;-56
2021/03/31 01:59:23;;;;;;;31.15;24.72;;;;;;;10.11;98.27;100034.05;1811589;77;20919;-55
2021/03/31 02:01:52;;;;;;;31.12;25.65;;;;;;;10.11;98.44;100038.88;1805244;79;20992;-55
2021/03/31 02:04:20;;;;;;;30.37;24.63;;;;;;;10.11;98.54;100032.71;1779809;79;21562;-55
2021/03/31 02:06:48;;;;;;;28.20;23.27;;;;;;;10.12;98.70;100037.02;1755566;77;21388;-55
2021/03/31 02:09:16;;;;;;;28.98;23.73;;;;;;;10.09;98.69;100034.70;1811526;77;21573;-55
2021/03/31 02:11:45;;;;;;;26.40;22.67;;;;;;;10.10;98.89;100033.20;1789020;79;21053;-55
2021/03/31 02:14:14;;;;;;;30.00;24.07;;;;;;;10.11;98.94;100036.70;1788943;79;20965;-55
2021/03/31 02:16:43;;;;;;;31.68;25.08;;;;;;;10.12;99.11;100037.02;1800547;79;21124;-56
2021/03/31 02:19:14;;;;;;;29.50;23.52;;;;;;;10.12;99.09;100030.37;1788966;79;21197;-57
2021/03/31 02:21:43;;;;;;;30.55;25.10;;;;;;;10.12;99.14;100035.69;1759985;79;21044;-55
2021/03/31 02:24:15;;;;;;;24.52;21.87;;;;;;;10.12;99.27;100027.27;1788194;79;21112;-55
2021/03/31 02:26:42;;;;;;;29.63;23.07;;;;;;;10.14;99.29;100034.58;1798357;79;21066;-54
2021/03/31 02:29:10;;;;;;;31.07;23.42;;;;;;;10.17;99.25;100034.77;1780756;79;20915;-55
2021/03/31 02:31:38;;;;;;;26.05;22.90;;;;;;;10.18;99.24;100041.77;1789011;79;21219;-56
2021/03/31 02:34:06;;;;;;;29.70;22.67;;;;;;;10.20;99.32;100036.63;1778921;79;21100;-55
2021/03/31 02:36:37;;;;;;;33.10;23.35;;;;;;;10.24;99.19;100032.69;1749940;79;21080;-57
2021/03/31 02:39:05;;;;;;;26.33;22.32;;;;;;;10.23;98.89;100035.00;1793560;79;21116;-54
2021/03/31 02:41:39;;;;;;;29.42;24.05;;;;;;;10.23;98.98;100027.52;1779778;79;20930;-54
2021/03/31 02:44:07;;;;;;;27.85;24.43;;;;;;;10.23;98.98;100036.33;1779688;79;21187;-54
2021/03/31 02:46:35;;;;;;;28.30;23.05;;;;;;;10.21;99.10;100030.34;1779570;77;21029;-56
2021/03/31 02:49:03;;;;;;;31.25;23.75;;;;;;;10.23;99.21;100032.34;1781672;79;20926;-55
2021/03/31 02:51:33;;;;;;;28.70;22.98;;;;;;;10.25;99.21;100033.50;1793352;79;21113;-54
2021/03/31 02:54:06;;;;;;;30.85;23.98;;;;;;;10.27;99.24;100030.22;1747242;79;20930;-55
2021/03/31 02:56:34;;;;;;;33.75;24.75;;;;;;;10.29;99.17;100030.41;1760289;79;21422;-55
2021/03/31 02:59:02;;;;;;;32.90;24.02;;;;;;;10.32;99.16;100027.92;1764785;79;20997;-54
2021/03/31 03:01:31;;;;;;;31.33;23.67;;;;;;;10.31;99.03;100029.74;1766088;79;20978;-54
2021/03/31 03:03:59;;;;;;;32.70;25.75;;;;;;;10.30;99.04;100033.37;1732390;81;21153;-55
2021/03/31 03:06:27;;;;;;;37.60;26.75;;;;;;;10.27;99.13;100026.23;1719760;82;21089;-54
2021/03/31 03:08:55;;;;;;;36.50;26.33;;;;;;;10.26;99.32;100032.53;1765794;79;21365;-56
2021/03/31 03:11:25;;;;;;;35.33;25.68;;;;;;;10.26;99.37;100031.20;1767859;79;21138;-54
2021/03/31 03:13:54;;;;;;;33.78;26.70;;;;;;;10.26;99.36;100028.05;1770836;78;20930;-54
2021/03/31 03:16:22;;;;;;;34.73;27.07;;;;;;;10.25;99.44;100017.55;1794180;79;21129;-55
2021/03/31 03:18:50;;;;;;;35.58;26.33;;;;;;;10.23;99.54;100022.19;1771011;78;21113;-55
2021/03/31 03:21:18;;;;;;;38.42;26.70;;;;;;;10.22;99.89;100020.02;1778703;79;21350;-55
2021/03/31 03:23:46;;;;;;;32.70;25.00;;;;;;;10.26;99.98;100024.06;1774934;78;21009;-55
2021/03/31 03:26:15;;;;;;;39.63;29.25;;;;;;;10.30;99.97;100019.24;1768323;78;20950;-55
2021/03/31 03:28:45;;;;;;;39.40;28.83;;;;;;;10.32;99.89;100027.92;1791782;79;21108;-55
2021/03/31 03:31:13;;;;;;;39.75;27.85;;;;;;;10.29;99.89;100029.07;1772490;78;21546;-53
2021/03/31 03:33:41;;;;;;;37.40;27.95;;;;;;;10.27;100.00;100023.57;1775232;79;21239;-54
2021/03/31 03:36:11;;;;;;;42.48;28.55;;;;;;;10.27;100.00;100026.23;1770781;79;21002;-54
2021/03/31 03:38:39;;;;;;;38.90;27.48;;;;;;;10.27;100.00;100024.90;1797038;79;21124;-55
2021/03/31 03:41:12;;;;;;;38.10;27.32;;;;;;;10.28;100.00;100027.39;1762057;79;21051;-55
2021/03/31 03:43:40;;;;;;;41.92;28.38;;;;;;;10.27;100.00;100026.23;1793432;79;20990;-55
2021/03/31 03:46:10;;;;;;;36.98;28.70;;;;;;;10.24;100.00;100026.05;1774259;79;21426;-55
2021/03/31 03:48:38;;;;;;;50.08;32.58;;;;;;;10.21;100.00;100021.52;1767457;78;21187;-55
2021/03/31 03:51:08;;;;;;;69.03;38.15;;;;;;;10.18;100.00;100022.66;1776211;79;21029;-55
2021/03/31 03:53:36;;;;;;;64.05;36.15;;;;;;;10.13;100.00;100014.32;1764008;79;21084;-57
2021/03/31 03:56:11;;;;;;;58.25;34.73;;;;;;;10.08;100.00;100012.59;1763070;80;21549;-55
2021/03/31 03:58:39;;;;;;;55.83;35.10;;;;;;;10.04;100.00;100013.87;1748265;80;21346;-54
2021/03/31 04:01:06;;;;;;;51.40;32.08;;;;;;;9.99;100.00;100012.66;1761020;80;21130;-56
2021/03/31 04:03:35;;;;;;;52.45;33.55;;;;;;;9.96;100.00;100011.14;1752160;80;21016;-54
2021/03/31 04:06:05;;;;;;;62.45;34.80;;;;;;;9.96;100.00;100011.66;1755045;80;20913;-56
2021/03/31 04:08:33;;;;;;;62.98;38.55;;;;;;;9.96;100.00;100011.66;1752083;80;21076;-54
2021/03/31 04:11:01;;;;;;;54.58;35.30;;;;;;;9.94;100.00;100002.49;1759432;80;21379;-55
2021/03/31 04:13:30;;;;;;;45.08;30.92;;;;;;;9.93;100.00;100005.64;1747711;80;21123;-55
2021/03/31 04:16:08;;;;;;;38.38;27.55;;;;;;;9.93;100.00;100006.97;1745782;80;21109;-55
2021/03/31 04:18:36;;;;;;;40.65;28.00;;;;;;;9.93;100.00;100004.31;1745786;80;21076;-54
2021/03/31 04:21:07;;;;;;;38.88;26.75;;;;;;;9.93;100.00;100010.95;1760618;80;20917;-55
2021/03/31 04:23:34;;;;;;;40.25;28.27;;;;;;;9.91;100.00;100010.28;1743851;81;21197;-55
2021/03/31 04:26:02;;;;;;;36.95;30.08;;;;;;;9.92;100.00;100008.46;1745723;80;21072;-54
2021/03/31 04:28:31;;;;;;;41.00;29.45;;;;;;;9.92;100.00;100009.80;1745790;80;21139;-55
2021/03/31 04:30:58;;;;;;;45.75;29.02;;;;;;;9.91;100.00;100002.30;1756005;79;21194;-54
2021/03/31 04:33:26;;;;;;;41.68;29.48;;;;;;;9.93;100.00;99999.52;1747867;80;21075;-56
2021/03/31 04:35:54;;;;;;;35.85;26.95;;;;;;;9.94;100.00;100003.33;1745676;80;21360;-55
2021/03/31 04:38:23;;;;;;;33.02;25.88;;;;;;;9.98;100.00;99997.72;1767335;80;21020;-55
2021/03/31 04:41:01;;;;;;;31.25;24.87;;;;;;;10.00;100.00;99995.73;1746464;80;21044;-54
2021/03/31 04:43:31;;;;;;;31.57;25.20;;;;;;;10.04;100.00;100001.09;1767341;80;21032;-56
2021/03/31 04:46:00;;;;;;;32.65;25.65;;;;;;;10.04;100.00;99995.78;1766247;80;21115;-55
2021/03/31 04:48:27;;;;;;;33.42;25.70;;;;;;;10.03;100.00;99997.59;1748215;80;22242;-55
2021/03/31 04:50:56;;;;;;;38.48;27.42;;;;;;;10.05;100.00;100004.08;1745779;80;20968;-56
2021/03/31 04:53:24;;;;;;;38.98;29.50;;;;;;;10.04;100.00;100002.42;1780259;79;21101;-55
2021/03/31 04:55:54;;;;;;;40.30;29.85;;;;;;;10.04;100.00;100003.76;1777767;78;21017;-55
2021/03/31 04:58:21;;;;;;;38.33;28.17;;;;;;;10.04;100.00;99997.11;1787807;78;21105;-54
2021/03/31 05:00:49;;;;;;;34.38;27.42;;;;;;;10.05;100.00;100001.42;1778596;78;21299;-55
2021/03/31 05:03:16;;;;;;;34.18;25.43;;;;;;;10.08;100.00;100000.63;1780909;78;21015;-55
2021/03/31 05:05:44;;;;;;;34.00;25.75;;;;;;;10.12;100.00;99994.03;1786809;79;21096;-55
2021/03/31 05:08:12;;;;;;;34.15;27.10;;;;;;;10.17;100.00;99998.88;1765849;79;21191;-55
2021/03/31 05:10:40;;;;;;;31.12;26.23;;;;;;;10.23;100.00;99999.59;1770028;78;21104;-56
2021/03/31 05:13:08;;;;;;;27.77;22.77;;;;;;;10.28;100.00;100002.13;1767843;79;21355;-54
2021/03/31 05:15:36;;;;;;;27.25;21.27;;;;;;;10.34;100.00;99999.34;1765734;79;21025;-56
2021/03/31 05:18:03;;;;;;;26.75;21.20;;;;;;;10.39;100.00;99998.38;1767965;79;20989;-57
2021/03/31 05:20:32;;;;;;;30.77;23.20;;;;;;;10.42;100.00;99997.58;1765568;79;21125;-55
2021/03/31 05:22:59;;;;;;;27.67;20.88;;;;;;;10.44;100.00;99997.41;1767853;79;21005;-55
2021/03/31 05:25:28;;;;;;;27.45;21.62;;;;;;;10.47;100.00;99996.61;1785666;79;21371;-56
2021/03/31 05:27:56;;;;;;;23.67;19.95;;;;;;;10.52;100.00;99990.33;1767791;79;20926;-56
2021/03/31 05:30:25;;;;;;;25.55;20.62;;;;;;;10.58;100.00;99993.34;1784883;79;20947;-55
2021/03/31 05:32:55;;;;;;;37.53;26.55;;;;;;;10.64;100.00;100003.36;1769653;79;20926;-55
2021/03/31 05:35:22;;;;;;;30.88;24.95;;;;;;;10.65;100.00;100004.52;1767687;79;21124;-55
2021/03/31 05:37:50;;;;;;;30.40;23.95;;;;;;;10.64;100.00;99997.52;1769173;79;21388;-55
2021/03/31 05:40:19;;;;;;;28.12;22.93;;;;;;;10.64;100.00;99996.19;1723326;81;21211;-55
2021/03/31 05:42:47;;;;;;;26.25;21.65;;;;;;;10.65;100.00;99997.88;1734498;82;20942;-55
2021/03/31 05:45:15;;;;;;;25.05;22.32;;;;;;;10.67;100.00;99995.88;1720869;80;21104;-55
2021/03/31 05:47:44;;;;;;;28.62;23.73;;;;;;;10.69;100.00;99995.22;1737854;82;21156;-58
2021/03/31 05:50:15;;;;;;;28.87;23.52;;;;;;;10.70;100.00;99998.72;1731290;82;22400;-55
2021/03/31 05:52:44;;;;;;;27.37;22.62;;;;;;;10.72;100.00;99998.89;1723655;82;21155;-54
2021/03/31 05:55:15;;;;;;;25.00;22.15;;;;;;;10.74;100.00;99997.42;1760489;81;21063;-56
2021/03/31 05:57:43;;;;;;;24.45;21.90;;;;;;;10.77;100.00;99997.08;1734331;82;21673;-55
2021/03/31 06:00:18;;;;;;;26.62;22.50;;;;;;;10.80;100.00;99990.11;1732951;82;21139;-55
2021/03/31 06:02:47;;;;;;;27.13;21.70;;;;;;;10.84;100.00;99992.33;1738336;82;21381;-55
2021/03/31 06:05:16;;;;;;;28.05;21.30;;;;;;;10.90;100.00;99989.00;1739184;82;21160;-56
2021/03/31 06:07:46;;;;;;;26.23;20.50;;;;;;;10.95;100.00;99982.70;1732821;82;21032;-55
2021/03/31 06:10:19;;;;;;;23.92;21.20;;;;;;;10.99;100.00;99982.73;1740710;81;21131;-56
2021/03/31 06:12:56;;;;;;;21.42;19.15;;;;;;;11.02;100.00;99983.74;1735490;82;21168;-55
2021/03/31 06:15:31;;;;;;;24.30;21.30;;;;;;;11.08;100.00;99979.58;1745990;82;21061;-56
2021/03/31 06:18:09;;;;;;;27.17;22.00;;;;;;;11.14;99.79;99981.60;1724848;82;21064;-56
2021/03/31 06:21:00;;;;;;;26.40;23.30;;;;;;;11.18;99.54;99981.11;1731040;82;21135;-55
2021/03/31 06:26:27;;;;;;;23.60;21.10;;;;;;;11.29;98.98;99981.30;1742169;82;21077;-57
2021/03/31 06:29:07;;;;;;;23.22;20.77;;;;;;;11.33;98.84;99973.84;1723628;82;22378;-55
2021/03/31 06:31:39;;;;;;;22.30;20.00;;;;;;;11.43;98.67;99979.84;1738240;82;21502;-56
2021/03/31 06:34:15;;;;;;;26.85;20.68;;;;;;;11.52;98.55;99981.55;1728674;82;21066;-55
2021/03/31 06:36:48;;;;;;;25.25;21.93;;;;;;;11.62;98.39;99978.22;1726445;82;21062;-57
2021/03/31 06:39:25;;;;;;;23.00;20.50;;;;;;;11.69;97.91;99987.25;1748654;81;21510;-59
2021/03/31 06:42:18;;;;;;;20.70;18.52;;;;;;;11.76;97.67;99988.24;1722774;82;22780;-56
2021/03/31 06:45:03;;;;;;;20.48;18.50;;;;;;;11.84;97.44;99983.41;1726496;80;21143;-58
2021/03/31 06:47:31;;;;;;;22.40;20.00;;;;;;;11.90;96.85;99983.59;1726766;80;21033;-57
2021/03/31 06:50:07;;;;;;;23.62;20.92;;;;;;;11.95;96.43;99983.93;1728528;80;21092;-55
2021/03/31 06:52:58;;;;;;;23.35;20.70;;;;;;;11.95;96.15;99985.75;1729418;81;21127;-54
2021/03/31 06:55:29;;;;;;;26.07;20.77;;;;;;;11.99;96.08;99987.91;1735563;81;21379;-56
2021/03/31 06:57:59;;;;;;;23.20;20.85;;;;;;;12.01;95.87;99987.77;1733966;79;21680;-57
2021/03/31 07:00:32;;;;;;;19.20;17.25;;;;;;;12.02;95.67;99984.92;1741588;81;21179;-57
2021/03/31 07:03:06;;;;;;;22.40;19.37;;;;;;;12.01;95.47;99980.61;1749456;81;21202;-56
2021/03/31 07:05:38;;;;;;;23.63;19.53;;;;;;;12.02;95.30;99980.92;1729861;80;21094;-59
2021/03/31 07:08:11;;;;;;;23.83;19.02;;;;;;;12.04;95.16;99975.44;1765663;78;21371;-56
2021/03/31 07:10:54;;;;;;;26.17;18.85;;;;;;;12.05;95.01;99977.92;1738188;80;21521;-58
2021/03/31 07:13:28;;;;;;;18.40;16.60;;;;;;;12.09;94.95;99980.61;1739736;81;21025;-57
2021/03/31 07:15:57;;;;;;;19.85;16.62;;;;;;;12.14;94.44;99981.42;1739343;81;21620;-56
2021/03/31 07:18:28;;;;;;;19.80;17.77;;;;;;;12.13;94.26;99984.59;1762049;80;21369;-58
2021/03/31 07:20:55;;;;;;;20.82;18.60;;;;;;;12.15;94.03;99981.25;1741558;81;21308;-55
2021/03/31 07:23:25;;;;;;;20.52;18.27;;;;;;;12.16;93.84;99983.42;1745233;81;21186;-55
2021/03/31 07:25:53;;;;;;;19.05;17.00;;;;;;;12.14;93.46;99982.27;1738522;81;21743;-54
2021/03/31 07:28:30;;;;;;;20.32;17.90;;;;;;;12.14;93.41;99978.77;1742941;81;21076;-56
2021/03/31 07:31:02;;;;;;;18.67;16.50;;;;;;;12.17;93.39;99979.27;1743361;81;21457;-54
2021/03/31 07:33:42;;;;;;;22.58;18.62;;;;;;;12.20;93.29;99978.91;1748209;81;21379;-57
2021/03/31 07:36:12;;;;;;;21.82;19.52;;;;;;;12.25;93.25;99993.09;1748876;81;21221;-54
2021/03/31 07:38:40;;;;;;;23.87;20.65;;;;;;;12.28;93.14;99985.56;1743622;81;21138;-55
2021/03/31 07:41:09;;;;;;;25.02;20.40;;;;;;;12.31;92.93;99986.56;1738633;81;21213;-55
2021/03/31 07:43:43;;;;;;;23.38;19.32;;;;;;;12.34;92.79;99986.23;1734165;80;21136;-55
2021/03/31 07:46:16;;;;;;;22.00;19.77;;;;;;;12.38;92.61;99979.55;1734349;80;21337;-56
2021/03/31 07:48:44;;;;;;;20.57;18.00;;;;;;;12.38;92.44;99978.20;1741574;79;21218;-55
2021/03/31 07:51:27;;;;;;;22.02;19.05;;;;;;;12.35;92.15;99979.91;1727851;81;21152;-55
2021/03/31 07:53:58;;;;;;;20.85;18.65;;;;;;;12.31;92.22;99980.39;1725608;81;21036;-55
2021/03/31 07:56:35;;;;;;;28.55;21.20;;;;;;;12.28;92.37;99978.89;1717360;82;21206;-54
2021/03/31 07:59:15;;;;;;;23.62;20.40;;;;;;;12.29;92.55;99976.57;1735279;82;21214;-55
2021/03/31 08:01:56;;;;;;;20.95;17.62;;;;;;;12.33;92.46;99975.75;1724694;82;21147;-57
2021/03/31 08:04:25;;;;;;;20.32;18.12;;;;;;;12.35;92.34;99977.24;1722428;82;21570;-55
2021/03/31 08:06:56;;;;;;;21.37;17.60;;;;;;;12.38;92.42;99971.53;1724950;82;21644;-55
2021/03/31 08:09:30;;;;;;;22.15;18.50;;;;;;;12.45;92.35;99969.03;1721097;82;21204;-55
2021/03/31 08:12:00;;;;;;;19.23;17.23;;;;;;;12.51;92.08;99967.53;1714038;82;21372;-55
2021/03/31 08:14:38;;;;;;;19.90;16.65;;;;;;;12.58;91.70;99971.17;1724188;82;21610;-57
2021/03/31 08:17:11;;;;;;;17.60;15.80;;;;;;;12.64;91.52;99970.49;1726610;82;21640;-55
2021/03/31 08:19:44;;;;;;;19.30;16.95;;;;;;;12.70;91.08;99971.96;1727281;82;21056;-55
2021/03/31 08:22:35;;;;;;;22.05;18.00;;;;;;;12.75;90.74;99960.27;1744908;82;21140;-55
2021/03/31 08:25:15;;;;;;;21.40;16.70;;;;;;;12.77;90.14;99959.61;1740120;82;21586;-57
2021/03/31 08:28:00;;;;;;;19.57;16.90;;;;;;;12.74;89.70;99951.10;1734677;80;21217;-58
2021/03/31 08:30:28;;;;;;;22.48;19.90;;;;;;;12.75;89.66;99949.58;1724831;82;21181;-55
2021/03/31 08:32:56;;;;;;;25.52;22.13;;;;;;;12.78;89.50;99951.07;1729650;82;21145;-55
2021/03/31 08:35:25;;;;;;;24.98;21.42;;;;;;;12.86;89.37;99959.05;1739111;82;21163;-54
2021/03/31 08:37:53;;;;;;;22.37;19.98;;;;;;;12.94;89.02;99962.53;1726825;82;22291;-57
2021/03/31 08:40:21;;;;;;;19.12;17.20;;;;;;;13.04;88.77;99946.28;1724090;82;21127;-56
2021/03/31 08:42:53;;;;;;;18.52;16.75;;;;;;;13.12;88.21;99945.44;1727217;80;21175;-57
2021/03/31 08:45:25;;;;;;;18.25;16.35;;;;;;;13.22;87.92;99956.77;1741738;80;21550;-55
2021/03/31 08:47:53;;;;;;;17.20;15.48;;;;;;;13.38;87.81;99956.14;1735886;82;21626;-58
2021/03/31 08:50:28;;;;;;;17.52;15.72;;;;;;;13.57;86.87;99946.34;1738886;82;21333;-56
2021/03/31 08:53:02;;;;;;;19.33;16.83;;;;;;;13.67;86.16;99942.58;1735002;81;21166;-55
2021/03/31 08:55:31;;;;;;;17.73;15.90;;;;;;;13.81;85.69;99944.48;1767983;80;21221;-57
2021/03/31 08:57:59;;;;;;;19.00;16.45;;;;;;;13.91;84.60;99938.38;1765355;78;21162;-56
2021/03/31 09:00:26;;;;;;;19.17;17.15;;;;;;;13.95;83.89;99933.81;1778538;80;21233;-54
2021/03/31 09:03:05;;;;;;;17.95;16.05;;;;;;;13.99;83.33;99932.45;1761273;80;21412;-55
2021/03/31 09:05:32;;;;;;;17.07;15.40;;;;;;;14.02;82.86;99932.10;1737729;81;21179;-54
2021/03/31 09:08:01;;;;;;;19.32;15.20;;;;;;;14.03;82.68;99929.73;1736776;80;21241;-55
2021/03/31 09:10:30;;;;;;;22.48;16.48;;;;;;;14.11;82.71;99931.49;1750692;81;21138;-55
2021/03/31 09:12:58;;;;;;;17.70;15.83;;;;;;;14.21;82.43;99931.55;1756054;79;21138;-56
2021/03/31 09:15:28;;;;;;;17.25;15.58;;;;;;;14.25;81.63;99921.33;1758839;79;20933;-55
2021/03/31 09:17:56;;;;;;;18.23;16.32;;;;;;;14.30;81.29;99919.44;1737678;81;21222;-56
2021/03/31 09:20:25;;;;;;;18.37;15.28;;;;;;;14.33;80.89;99915.93;1724936;81;21222;-56
2021/03/31 09:22:54;;;;;;;18.57;14.95;;;;;;;14.38;80.84;99916.20;1725085;81;21080;-57
2021/03/31 09:25:21;;;;;;;16.45;14.75;;;;;;;14.47;80.25;99913.74;1724853;81;21044;-56
2021/03/31 09:27:50;;;;;;;16.10;14.50;;;;;;;14.54;79.79;99922.72;1748047;81;21930;-56
2021/03/31 09:30:18;;;;;;;16.05;14.38;;;;;;;14.63;79.44;99920.76;1738441;81;21103;-56
2021/03/31 09:32:52;;;;;;;15.32;13.72;;;;;;;14.75;79.21;99917.45;1747148;81;20932;-55
2021/03/31 09:35:21;;;;;;;17.12;14.98;;;;;;;14.94;78.73;99913.86;1738546;81;21330;-58
2021/03/31 09:37:53;;;;;;;14.47;12.98;;;;;;;15.10;77.95;99917.64;1755589;80;21067;-54
2021/03/31 09:40:26;;;;;;;14.68;12.98;;;;;;;15.21;76.81;99919.84;1731913;81;21594;-57
2021/03/31 09:42:59;;;;;;;15.63;14.07;;;;;;;15.25;76.68;99921.94;1754856;81;21149;-55
2021/03/31 09:45:29;;;;;;;15.68;14.07;;;;;;;15.36;76.23;99916.09;1755392;80;21585;-55
2021/03/31 09:47:58;;;;;;;15.95;14.40;;;;;;;15.41;75.13;99912.83;1758919;80;21167;-55
2021/03/31 09:50:27;;;;;;;17.25;14.90;;;;;;;15.38;74.54;99910.02;1754993;80;21206;-58
2021/03/31 09:52:57;;;;;;;15.40;13.88;;;;;;;15.34;74.60;99907.91;1737338;81;21375;-54
2021/03/31 09:55:24;;;;;;;16.75;13.03;;;;;;;15.37;74.67;99899.50;1716361;82;21120;-56
2021/03/31 09:57:52;;;;;;;15.08;11.90;;;;;;;15.44;74.32;99900.38;1723596;82;21211;-57
2021/03/31 10:00:24;;;;;;;15.50;12.70;;;;;;;15.48;73.69;99899.03;1730127;82;21223;-55
2021/03/31 10:02:52;;;;;;;12.28;10.98;;;;;;;15.48;73.79;99895.52;1717006;82;21135;-54
2021/03/31 10:05:21;;;;;;;12.70;11.40;;;;;;;15.69;73.75;99889.64;1709979;82;21451;-54
2021/03/31 10:08:00;;;;;;;13.80;12.05;;;;;;;15.99;72.95;99888.43;1722669;82;21190;-55
2021/03/31 10:10:48;;;;;;;11.85;10.65;;;;;;;16.30;71.75;99885.33;1730079;82;21001;-55
2021/03/31 10:13:18;;;;;;;16.27;11.00;;;;;;;16.61;70.49;99882.22;1729240;82;21187;-58
2021/03/31 10:16:03;;;;;;;15.30;11.53;;;;;;;16.88;69.26;99881.32;1730796;81;21199;-55
2021/03/31 10:18:33;;;;;;;11.90;10.68;;;;;;;17.09;68.19;99878.50;1714116;83;21001;-56
2021/03/31 10:21:03;;;;;;;12.82;11.53;;;;;;;17.24;67.50;99868.41;1727738;82;21028;-56
2021/03/31 10:23:34;;;;;;;11.78;10.50;;;;;;;17.40;66.58;99868.53;1730499;82;21225;-56
2021/03/31 10:26:27;;;;;;;15.53;10.30;;;;;;;17.48;65.85;99868.34;1724114;82;21606;-58
2021/03/31 10:29:03;;;;;;;12.23;10.93;;;;;;;17.57;65.51;99863.63;1736808;82;21009;-55
2021/03/31 10:31:39;;;;;;;10.75;9.70;;;;;;;17.68;64.62;99862.48;1717405;82;21377;-55
2021/03/31 10:34:10;;;;;;;15.38;11.55;;;;;;;17.67;64.53;99864.05;1726149;82;21203;-55
2021/03/31 10:50:01;;;;;;;26.97;11.33;;;;;;;17.75;63.09;99841.77;1723704;82;21227;-55
2021/03/31 10:55:16;;;;;;;12.82;11.35;;;;;;;17.95;63.11;99826.97;1826923;78;22042;-54
2021/03/31 10:57:45;;;;;;;12.23;11.03;;;;;;;17.96;62.59;99829.98;1805528;79;21017;-57
2021/03/31 11:00:15;;;;;;;16.62;12.65;;;;;;;17.93;62.41;99820.98;1796769;79;21261;-56
2021/03/31 11:02:43;;;;;;;12.15;10.93;;;;;;;17.78;62.08;99815.00;1748286;81;21096;-54
2021/03/31 11:05:11;;;;;;;12.58;11.28;;;;;;;17.59;62.50;99815.83;1754155;81;20999;-54
2021/03/31 11:07:39;;;;;;;12.37;11.03;;;;;;;17.50;63.01;99816.51;1752852;81;21081;-55
2021/03/31 11:10:08;;;;;;;53.50;14.20;;;;;;;17.43;63.29;99822.92;1749284;81;20994;-57
2021/03/31 11:12:39;;;;;;;16.35;11.55;;;;;;;17.41;63.70;99822.30;1722223;82;21585;-55
2021/03/31 11:15:10;;;;;;;14.50;11.53;;;;;;;17.41;63.38;99819.62;1753214;80;21028;-56
2021/03/31 11:17:55;;;;;;;21.12;11.18;;;;;;;17.37;63.25;99812.98;1750368;80;21014;-55
2021/03/31 11:21:04;;;;;;;24.53;11.87;;;;;;;17.29;63.63;99816.19;1776277;80;21597;-56
2021/03/31 11:28:07;;;;;;;16.65;11.22;;;;;;;17.20;63.95;99805.84;1778706;80;21605;-57
2021/03/31 11:30:35;;;;;;;17.90;11.95;;;;;;;17.12;64.23;99805.52;1749516;81;21036;-55
2021/03/31 11:33:04;;;;;;;21.42;13.10;;;;;;;17.09;64.54;99801.90;1730476;82;21171;-55
2021/03/31 11:35:32;;;;;;;21.45;13.08;;;;;;;17.03;64.43;99804.05;1749606;82;20938;-56
2021/03/31 11:37:59;;;;;;;14.70;13.03;;;;;;;16.95;64.93;99799.37;1746391;82;21453;-55
2021/03/31 11:40:30;;;;;;;14.75;13.28;;;;;;;16.90;65.26;99798.64;1730207;81;21046;-57
2021/03/31 11:42:59;;;;;;;15.18;13.70;;;;;;;16.83;65.41;99796.97;1723567;80;21155;-55
2021/03/31 11:45:29;;;;;;;16.52;14.93;;;;;;;16.73;65.88;99791.16;1741897;81;21049;-57
2021/03/31 11:47:57;;;;;;;14.00;12.70;;;;;;;16.67;66.20;99791.45;1748534;80;21025;-56
2021/03/31 11:50:27;;;;;;;14.43;13.20;;;;;;;16.64;66.16;99785.97;1751619;81;22220;-57
2021/03/31 11:52:54;;;;;;;14.10;12.88;;;;;;;16.63;66.13;99783.50;1751201;81;21144;-57
2021/03/31 11:55:23;;;;;;;15.70;14.23;;;;;;;16.66;66.13;99783.06;1738849;82;21125;-57